Time;durP1;ratioP1;P1;durP2;ratioP2;P2;SDS_P1;SDS_P2;PMS_P1;PMS_P2;Temp;Humidity;BMP_temperature;BMP_pressure;BME280_temperature;BME280_humidity;BME280_pressure;Samples;Min_cycle;Max_cycle;Signal;HPM_P1;HPM_P2
2022/05/07 00:02:08;;;;;;;11.13;10.53;;;;;;;12.37;56.97;93242.31;5068465;28;20243;-86
2022/05/07 00:04:38;;;;;;;10.97;10.43;;;;;;;12.43;57.13;93256.97;5074506;28;20180;-88
2022/05/07 00:07:07;;;;;;;10.27;9.57;;;;;;;12.18;57.76;93224.94;5062509;28;20531;-88
2022/05/07 00:09:34;;;;;;;10.93;10.33;;;;;;;12.34;57.50;93247.34;5066026;28;20178;-87
2022/05/07 00:11:59;;;;;;;10.77;10.20;;;;;;;12.25;57.72;93251.59;5050215;28;20256;-87
2022/05/07 00:14:26;;;;;;;9.77;9.17;;;;;;;12.18;57.60;93230.16;5051350;28;21379;-88
2022/05/07 00:19:36;;;;;;;10.90;10.30;;;;;;;12.18;57.45;93238.81;5065826;28;20224;-87
2022/05/07 00:22:02;;;;;;;11.70;11.00;;;;;;;12.17;57.97;93239.09;5067347;28;20230;-88
2022/05/07 00:24:28;;;;;;;10.70;10.10;;;;;;;12.16;57.77;93233.06;5088154;28;20218;-87
2022/05/07 00:26:53;;;;;;;11.43;10.63;;;;;;;12.25;57.82;93247.13;5072246;28;20252;-88
2022/05/07 00:29:19;;;;;;;10.37;9.87;;;;;;;12.12;58.31;93241.72;5075154;28;20182;-87
2022/05/07 00:31:44;;;;;;;11.17;10.57;;;;;;;12.04;58.67;93242.31;5065367;28;20222;-85
2022/05/07 00:34:10;;;;;;;10.27;9.57;;;;;;;12.14;57.68;93234.41;5072884;28;20221;-84
2022/05/07 00:36:35;;;;;;;10.43;9.80;;;;;;;12.05;58.20;93239.41;5071412;28;20232;-86
2022/05/07 00:39:01;;;;;;;11.03;10.43;;;;;;;12.08;58.14;93240.69;5069953;28;20222;-87
2022/05/07 00:41:26;;;;;;;10.73;10.03;;;;;;;11.90;57.63;93238.72;5074176;28;20222;-85
2022/05/07 00:43:52;;;;;;;11.07;10.47;;;;;;;11.66;58.86;93215.03;5063691;28;20197;-87
2022/05/07 00:46:22;;;;;;;10.27;9.67;;;;;;;11.80;58.37;93228.34;5060781;28;20230;-86
2022/05/07 00:48:48;;;;;;;11.03;10.23;;;;;;;11.52;58.06;93187.13;5066031;28;20194;-87
2022/05/07 00:53:58;;;;;;;9.20;8.80;;;;;;;11.68;58.06;93226.03;5058425;28;20228;-86
2022/05/07 00:56:23;;;;;;;10.90;10.27;;;;;;;11.56;57.91;93214.28;5071209;28;20223;-86
2022/05/07 00:58:51;;;;;;;9.73;9.13;;;;;;;11.57;57.73;93216.63;5063619;28;20189;-87
2022/05/07 01:01:17;;;;;;;10.70;10.10;;;;;;;11.60;58.55;93223.16;5070786;28;20232;-88
2022/05/07 01:03:44;;;;;;;9.67;8.97;;;;;;;11.65;57.51;93217.94;5062599;28;20197;-87
2022/05/07 01:06:09;;;;;;;9.27;8.83;;;;;;;11.68;57.02;93222.63;5068312;28;20217;-86
2022/05/07 01:08:35;;;;;;;9.27;8.87;;;;;;;11.49;56.47;93205.97;5061638;28;20243;-87
2022/05/07 01:11:01;;;;;;;10.33;9.73;;;;;;;11.61;56.16;93225.50;5070651;28;20221;-87
2022/05/07 01:13:27;;;;;;;9.87;9.37;;;;;;;11.34;55.79;93173.63;5061560;28;20245;-87
2022/05/07 01:15:57;;;;;;;9.70;8.90;;;;;;;11.29;56.07;93170.22;5068174;28;20219;-87
2022/05/07 01:18:23;;;;;;;9.30;8.83;;;;;;;11.64;54.66;93217.16;5068049;28;20189;-87
2022/05/07 01:20:49;;;;;;;9.47;8.87;;;;;;;11.79;54.91;93232.78;5068888;28;20185;-86
2022/05/07 01:23:15;;;;;;;10.33;9.77;;;;;;;11.63;55.25;93228.66;5070443;28;20258;-86
2022/05/07 01:25:41;;;;;;;10.33;9.80;;;;;;;11.59;55.66;93221.59;5070412;28;20182;-85
2022/05/07 01:28:07;;;;;;;10.03;9.43;;;;;;;11.59;55.60;93230.22;5072798;28;20261;-87
2022/05/07 01:30:35;;;;;;;9.20;8.80;;;;;;;11.51;55.72;93217.72;5088765;28;20189;-87
2022/05/07 01:33:01;;;;;;;9.93;9.43;;;;;;;11.51;55.51;93214.31;5069914;28;20347;-86
2022/05/07 01:35:26;;;;;;;9.37;8.77;;;;;;;11.63;55.33;93236.50;5078984;28;20196;-86
2022/05/07 01:37:52;;;;;;;9.40;9.00;;;;;;;11.57;55.10;93226.31;5079380;28;20219;-87
2022/05/07 01:40:17;;;;;;;10.33;9.83;;;;;;;11.39;55.51;93202.34;5074196;28;20213;-87
2022/05/07 01:42:43;;;;;;;9.77;9.17;;;;;;;11.57;55.15;93234.16;5073278;28;20225;-87
2022/05/07 01:45:09;;;;;;;9.90;9.33;;;;;;;11.45;55.13;93221.41;5073938;28;20236;-87
2022/05/07 01:50:22;;;;;;;9.70;9.20;;;;;;;11.38;54.91;93226.91;5064912;28;20192;-87
2022/05/07 01:52:48;;;;;;;10.03;9.50;;;;;;;11.31;55.23;93215.19;5070111;28;20225;-87
2022/05/07 01:55:13;;;;;;;9.87;9.47;;;;;;;11.06;55.70;93202.22;5062713;28;20241;-87
2022/05/07 01:57:39;;;;;;;9.57;9.17;;;;;;;11.17;56.40;93214.19;5071502;28;20224;-87
2022/05/07 02:00:05;;;;;;;9.90;9.30;;;;;;;11.15;57.07;93211.84;5061793;28;20183;-87
2022/05/07 02:02:30;;;;;;;9.33;8.83;;;;;;;10.82;56.87;93167.28;5071625;28;20264;-85
2022/05/07 02:04:56;;;;;;;9.23;8.83;;;;;;;11.09;56.58;93210.31;5060778;28;20201;-87
2022/05/07 02:07:21;;;;;;;10.47;9.97;;;;;;;11.05;55.70;93200.66;5072288;28;20224;-87
2022/05/07 02:09:47;;;;;;;9.17;8.67;;;;;;;11.24;56.32;93210.25;5062662;28;20201;-87
2022/05/07 02:12:12;;;;;;;10.37;9.77;;;;;;;11.02;57.38;93216.84;5072576;28;20282;-85
2022/05/07 02:14:38;;;;;;;9.50;8.90;;;;;;;11.08;57.05;93221.03;5061612;28;20320;-86
2022/05/07 02:17:03;;;;;;;10.50;9.90;;;;;;;10.63;57.26;93195.78;5069286;28;20231;-86
2022/05/07 02:19:29;;;;;;;9.73;9.23;;;;;;;10.96;58.98;93223.91;5073412;28;20186;-85
2022/05/07 02:21:54;;;;;;;10.17;9.67;;;;;;;10.95;59.66;93237.25;5069502;28;20317;-87
2022/05/07 02:24:20;;;;;;;9.93;9.33;;;;;;;10.69;60.79;93233.88;5067004;28;20184;-86
2022/05/07 02:26:45;;;;;;;9.27;8.77;;;;;;;10.53;58.00;93214.09;5060382;28;20229;-87
2022/05/07 02:29:10;;;;;;;8.87;8.47;;;;;;;10.64;57.58;93236.53;5063650;28;20186;-86
2022/05/07 02:31:36;;;;;;;9.40;8.90;;;;;;;10.31;58.93;93244.88;5067809;28;20906;-86
2022/05/07 02:34:02;;;;;;;9.27;8.77;;;;;;;10.28;59.14;93237.59;5072027;28;20240;-84
2022/05/07 02:36:27;;;;;;;9.30;8.87;;;;;;;9.96;61.77;93234.38;5062292;28;20294;-87
2022/05/07 02:38:53;;;;;;;9.97;9.40;;;;;;;9.84;62.92;93235.69;5071360;28;20204;-87
2022/05/07 02:44:04;;;;;;;9.97;9.47;;;;;;;9.72;64.69;93233.31;5040111;28;20196;-87
2022/05/07 02:46:29;;;;;;;9.43;8.93;;;;;;;9.55;65.67;93228.31;5047988;28;20286;-87
2022/05/07 02:48:55;;;;;;;9.97;9.17;;;;;;;9.57;67.25;93246.31;5049885;28;20178;-86
2022/05/07 02:51:20;;;;;;;10.17;9.63;;;;;;;9.64;66.67;93242.41;5053713;28;20251;-87
2022/05/07 02:53:47;;;;;;;9.37;8.97;;;;;;;9.63;66.91;93250.50;5064952;28;20216;-87
2022/05/07 02:56:12;;;;;;;9.73;9.23;;;;;;;9.54;66.10;93252.03;5060688;28;20225;-87
2022/05/07 02:58:37;;;;;;;10.53;9.83;;;;;;;9.38;64.63;93253.00;5084688;28;20192;-86
2022/05/07 03:01:03;;;;;;;10.27;9.67;;;;;;;9.24;65.60;93246.72;5068253;28;20303;-86
2022/05/07 03:03:29;;;;;;;10.03;9.43;;;;;;;9.33;65.70;93255.59;5049997;28;20194;-87
2022/05/07 03:05:55;;;;;;;9.60;9.10;;;;;;;9.33;65.44;93256.38;5052514;28;20198;-86
2022/05/07 03:08:21;;;;;;;9.50;8.93;;;;;;;9.21;66.14;93240.16;5049070;28;20191;-87
2022/05/07 03:10:47;;;;;;;9.13;8.73;;;;;;;9.19;66.08;93233.66;5043683;28;20267;-87
2022/05/07 03:13:13;;;;;;;8.93;8.47;;;;;;;9.10;67.11;93256.03;5066501;28;20269;-85
2022/05/07 03:15:38;;;;;;;9.83;9.33;;;;;;;9.01;67.89;93226.28;5060176;28;20197;-85
2022/05/07 03:18:04;;;;;;;10.13;9.63;;;;;;;9.10;68.37;93235.97;5045613;28;20217;-90
2022/05/07 03:20:29;;;;;;;11.00;10.50;;;;;;;9.27;67.94;93249.59;5043014;28;20228;-85
2022/05/07 03:22:55;;;;;;;9.87;9.23;;;;;;;9.14;69.44;93225.81;5060616;28;20229;-80
2022/05/07 03:25:20;;;;;;;10.83;10.17;;;;;;;9.01;69.75;93221.06;5068425;28;20174;-79
2022/05/07 03:27:45;;;;;;;10.53;10.03;;;;;;;9.29;69.83;93237.06;5062488;28;20225;-85
2022/05/07 03:30:11;;;;;;;11.23;10.50;;;;;;;9.36;69.53;93229.03;5074338;28;20218;-82
2022/05/07 03:32:37;;;;;;;9.87;9.30;;;;;;;9.47;68.38;93244.47;5053990;28;20325;-83
2022/05/07 03:35:02;;;;;;;10.00;9.43;;;;;;;9.20;68.85;93219.56;5044352;28;20220;-83
2022/05/07 03:37:28;;;;;;;10.30;9.70;;;;;;;9.09;70.53;93237.00;5070495;28;20899;-85
2022/05/07 03:39:54;;;;;;;10.43;9.83;;;;;;;9.12;70.20;93238.31;5072319;28;20253;-80
2022/05/07 03:42:20;;;;;;;10.23;9.73;;;;;;;9.19;69.73;93197.19;5070445;28;20240;-81
2022/05/07 03:44:46;;;;;;;10.40;9.80;;;;;;;9.29;69.66;93218.06;5074169;28;20193;-84
2022/05/07 03:47:12;;;;;;;11.07;10.27;;;;;;;9.47;70.24;93239.25;5082829;28;20289;-85
2022/05/07 03:49:37;;;;;;;10.87;10.27;;;;;;;9.36;70.31;93208.19;5074919;28;20200;-83
2022/05/07 03:54:47;;;;;;;10.20;9.47;;;;;;;9.64;70.28;93237.22;5072550;28;20201;-84
2022/05/07 03:57:13;;;;;;;10.47;9.87;;;;;;;9.80;70.92;93248.47;5068814;28;20217;-81
2022/05/07 03:59:40;;;;;;;11.20;10.30;;;;;;;10.21;69.25;93252.69;5076425;28;20177;-81
2022/05/07 04:02:06;;;;;;;11.13;10.53;;;;;;;10.08;69.65;93253.22;5069331;28;20240;-82
2022/05/07 04:04:32;;;;;;;10.57;10.07;;;;;;;10.00;70.43;93255.53;5065633;28;20182;-78
2022/05/07 04:06:58;;;;;;;11.40;10.53;;;;;;;10.15;70.12;93253.75;5073583;28;20244;-79
2022/05/07 04:09:24;;;;;;;11.40;10.67;;;;;;;10.43;67.88;93263.69;5065569;28;20280;-82
2022/05/07 04:11:49;;;;;;;9.57;9.03;;;;;;;10.49;65.03;93270.47;5057316;28;20235;-81
2022/05/07 04:14:15;;;;;;;10.70;9.77;;;;;;;10.86;63.97;93265.72;5055468;28;20214;-81
2022/05/07 04:16:40;;;;;;;10.40;9.60;;;;;;;11.24;63.35;93254.69;5058779;28;20225;-80
2022/05/07 04:19:06;;;;;;;10.83;10.13;;;;;;;11.51;61.56;93261.38;5071562;28;20205;-80
2022/05/07 04:21:32;;;;;;;8.93;8.53;;;;;;;11.86;60.79;93266.50;5072610;28;20226;-80
2022/05/07 04:23:58;;;;;;;9.93;9.33;;;;;;;11.15;61.71;93269.34;5070361;28;20194;-82
2022/05/07 04:26:23;;;;;;;10.80;10.20;;;;;;;11.04;62.20;93254.75;5063971;28;20257;-83
2022/05/07 04:28:49;;;;;;;10.37;9.77;;;;;;;10.82;62.61;93261.28;5052608;28;20182;-82
2022/05/07 04:31:16;;;;;;;10.47;9.97;;;;;;;11.18;61.61;93271.44;5047333;28;20226;-82
2022/05/07 04:33:42;;;;;;;9.77;9.07;;;;;;;11.52;59.99;93273.41;5049680;28;20855;-80
2022/05/07 04:36:07;;;;;;;10.83;9.93;;;;;;;11.71;60.04;93262.09;5050786;28;20262;-82
2022/05/07 04:38:32;;;;;;;9.90;9.30;;;;;;;11.93;58.63;93265.13;5066767;28;20214;-81
2022/05/07 04:40:58;;;;;;;8.73;8.33;;;;;;;12.07;58.43;93270.56;5073494;28;20289;-81
2022/05/07 04:43:23;;;;;;;9.40;8.87;;;;;;;12.46;57.14;93259.03;5068697;28;20257;-81
2022/05/07 04:45:49;;;;;;;9.53;8.83;;;;;;;12.62;57.63;93255.22;5071501;28;20275;-81
2022/05/07 04:48:14;;;;;;;13.10;9.33;;;;;;;12.98;56.97;93279.28;5064988;28;20236;-82
2022/05/07 04:50:40;;;;;;;9.57;9.13;;;;;;;12.44;56.90;93265.59;5081863;28;20188;-81
2022/05/07 04:53:05;;;;;;;9.73;9.10;;;;;;;11.78;57.81;93251.34;5073291;28;20707;-81
2022/05/07 04:55:32;;;;;;;9.67;9.17;;;;;;;12.46;57.22;93273.97;5071133;28;20187;-80
2022/05/07 04:57:58;;;;;;;9.80;9.30;;;;;;;13.11;55.94;93288.34;5070294;28;20308;-80
2022/05/07 05:00:23;;;;;;;9.47;8.97;;;;;;;13.36;55.10;93285.50;5072342;28;20173;-80
2022/05/07 05:02:48;;;;;;;9.40;8.97;;;;;;;13.11;56.48;93289.16;5055569;28;20280;-80
2022/05/07 05:05:14;;;;;;;10.17;9.53;;;;;;;12.55;53.85;93260.00;5054544;28;20186;-81
2022/05/07 05:07:40;;;;;;;8.80;8.37;;;;;;;12.03;56.49;93282.63;5069238;28;20229;-81
2022/05/07 05:10:05;;;;;;;10.03;9.53;;;;;;;13.45;54.36;93266.25;5077888;28;20279;-83
2022/05/07 05:12:32;;;;;;;9.80;9.20;;;;;;;14.32;52.66;93281.44;5069556;28;20224;-84
2022/05/07 05:15:01;;;;;;;9.20;8.70;;;;;;;14.40;51.32;93288.69;5070260;28;20661;-82
2022/05/07 05:17:27;;;;;;;8.60;8.00;;;;;;;14.53;51.06;93266.16;5070895;28;20225;-83
2022/05/07 05:19:53;;;;;;;9.37;8.77;;;;;;;13.23;52.65;93291.41;5069154;28;20197;-83
2022/05/07 05:22:18;;;;;;;9.43;8.83;;;;;;;14.27;51.37;93241.34;5070673;28;20260;-85
2022/05/07 05:24:44;;;;;;;10.07;9.57;;;;;;;15.57;47.68;93286.50;5065625;28;20182;-81
2022/05/07 05:27:09;;;;;;;10.60;10.00;;;;;;;15.21;48.51;93285.53;5071716;28;20221;-80
2022/05/07 05:29:35;;;;;;;9.50;8.90;;;;;;;14.73;49.18;93296.59;5074624;28;20192;-82
2022/05/07 05:32:00;;;;;;;9.70;9.20;;;;;;;14.79;49.74;93277.84;5073945;28;20209;-79
2022/05/07 05:34:26;;;;;;;8.80;8.20;;;;;;;16.45;45.92;93301.06;5057113;28;20194;-78
2022/05/07 05:36:52;;;;;;;9.73;9.23;;;;;;;18.43;40.79;93287.50;5065129;28;20233;-79
2022/05/07 05:39:17;;;;;;;9.23;8.63;;;;;;;18.87;38.61;93294.34;5070628;28;20204;-77
2022/05/07 05:41:44;;;;;;;9.93;9.13;;;;;;;18.73;39.58;93299.81;5074151;28;20281;-86
2022/05/07 05:44:10;;;;;;;8.93;8.30;;;;;;;20.52;36.93;93298.50;5073526;28;20211;-87
2022/05/07 05:46:36;;;;;;;9.23;8.47;;;;;;;23.80;31.31;93311.28;5070833;28;20877;-89
2022/05/07 05:49:01;;;;;;;8.80;8.20;;;;;;;24.51;29.37;93303.13;5072003;28;20172;-88
2022/05/07 05:51:26;;;;;;;9.13;8.60;;;;;;;22.84;31.95;93307.13;5066737;28;20262;-89
2022/05/07 05:53:52;;;;;;;8.52;8.10;;;;;;;23.48;31.70;93294.50;5072344;28;20222;-91
2022/05/07 05:56:17;;;;;;;8.98;8.38;;;;;;;25.52;28.14;93319.81;5062634;28;20221;-88
2022/05/07 05:58:43;;;;;;;8.63;8.13;;;;;;;24.84;28.08;93300.84;5038181;28;20190;-89
2022/05/07 06:01:08;;;;;;;9.93;9.32;;;;;;;25.04;28.80;93315.78;5036706;28;20240;-84
2022/05/07 06:03:34;;;;;;;8.43;7.90;;;;;;;26.60;26.88;93310.22;5049746;28;20218;-86
2022/05/07 06:06:00;;;;;;;8.77;8.27;;;;;;;26.49;26.19;93334.16;5054156;28;20231;-89
2022/05/07 06:08:25;;;;;;;8.43;7.93;;;;;;;23.87;30.85;93321.38;5068277;28;20176;-91
2022/05/07 06:10:52;;;;;;;9.32;8.65;;;;;;;24.60;29.55;93303.72;5072952;28;20199;-87
2022/05/07 06:13:21;;;;;;;8.52;7.93;;;;;;;25.02;28.84;93323.34;5070974;28;20648;-89
2022/05/07 06:15:51;;;;;;;8.65;8.15;;;;;;;26.33;26.89;93319.38;5071604;28;20200;-87
2022/05/07 06:18:18;;;;;;;8.45;7.95;;;;;;;25.46;28.04;93324.69;5073701;28;20177;-83
2022/05/07 06:20:44;;;;;;;8.40;8.00;;;;;;;25.30;28.00;93318.59;5066936;28;20179;-88
2022/05/07 06:23:09;;;;;;;9.07;8.30;;;;;;;24.56;29.08;93300.19;5069669;28;20247;-91
2022/05/07 06:28:22;;;;;;;9.50;8.80;;;;;;;19.43;38.06;93288.06;5071545;28;20231;-81
2022/05/07 06:30:48;;;;;;;8.60;8.10;;;;;;;17.87;41.64;93305.22;5064207;28;20252;-82
2022/05/07 06:33:13;;;;;;;9.53;8.83;;;;;;;17.33;43.60;93309.78;5068780;28;20237;-81
2022/05/07 06:35:39;;;;;;;9.57;8.87;;;;;;;16.99;44.63;93308.78;5064574;28;20285;-83
2022/05/07 06:38:05;;;;;;;9.87;9.17;;;;;;;16.73;45.39;93269.00;5068097;28;20182;-84
2022/05/07 06:40:30;;;;;;;9.97;9.33;;;;;;;16.93;45.00;93304.69;5069206;28;20208;-85
2022/05/07 06:42:55;;;;;;;9.40;8.80;;;;;;;16.86;45.17;93305.13;5066212;28;20224;-88
2022/05/07 06:45:21;;;;;;;10.63;10.03;;;;;;;16.54;45.99;93300.06;5062433;28;20186;-89
2022/05/07 06:47:46;;;;;;;9.27;8.77;;;;;;;16.64;45.77;93307.72;5050649;28;20253;-84
2022/05/07 06:50:12;;;;;;;9.87;9.27;;;;;;;16.43;45.73;93306.59;5045742;28;20193;-87
2022/05/07 06:52:45;;;;;;;9.97;9.07;;;;;;;16.35;46.63;93299.38;5060316;28;20238;-90
2022/05/07 06:55:19;;;;;;;10.07;9.33;;;;;;;16.31;46.68;93295.78;5064595;28;20177;-88
2022/05/07 06:57:46;;;;;;;9.93;9.23;;;;;;;16.13;47.26;93309.06;5069299;28;20231;-86
2022/05/07 07:00:14;;;;;;;10.00;9.40;;;;;;;15.98;47.69;93300.41;5069281;28;20189;-87
2022/05/07 07:02:40;;;;;;;12.53;10.00;;;;;;;15.94;47.85;93302.09;5068684;28;20225;-84
2022/05/07 07:05:06;;;;;;;9.57;8.97;;;;;;;15.67;48.66;93288.16;5071891;28;20186;-88
2022/05/07 07:07:32;;;;;;;10.37;9.77;;;;;;;15.75;48.29;93287.47;5072571;28;20289;-87
2022/05/07 07:09:57;;;;;;;9.70;9.13;;;;;;;15.97;48.53;93284.91;5071852;28;20194;-92
2022/05/07 07:12:23;;;;;;;10.03;9.53;;;;;;;15.83;48.82;93295.47;5052520;28;20308;-88
2022/05/07 07:14:49;;;;;;;10.83;10.17;;;;;;;16.03;46.59;93294.28;5053723;28;20214;-84
2022/05/07 07:17:18;;;;;;;9.73;9.23;;;;;;;16.36;44.77;93271.19;5054865;28;20589;-85
2022/05/07 07:19:44;;;;;;;9.60;8.90;;;;;;;16.44;43.87;93266.00;5049150;28;20182;-86
2022/05/07 07:22:11;;;;;;;9.30;8.80;;;;;;;16.47;44.32;93262.78;5054690;28;20222;-84
2022/05/07 07:24:36;;;;;;;10.27;9.57;;;;;;;17.03;43.37;93280.69;5051615;28;20201;-85
2022/05/07 07:27:03;;;;;;;10.07;9.47;;;;;;;16.92;43.00;93230.06;5050931;28;20218;-85
2022/05/07 07:29:29;;;;;;;9.40;8.73;;;;;;;16.25;43.09;93260.06;5046899;28;20573;-89
2022/05/07 07:31:54;;;;;;;11.10;10.40;;;;;;;16.25;44.05;93275.88;5048851;28;20229;-85
2022/05/07 07:34:21;;;;;;;9.40;8.90;;;;;;;16.62;44.14;93274.84;5055554;28;20214;-87
2022/05/07 07:36:50;;;;;;;8.43;8.03;;;;;;;16.54;43.90;93252.63;5051292;28;20218;-83
2022/05/07 07:39:16;;;;;;;10.80;10.00;;;;;;;16.77;43.72;93275.25;5051976;28;20187;-87
2022/05/07 07:41:41;;;;;;;9.10;8.60;;;;;;;16.96;43.36;93265.31;5059499;28;20225;-86
2022/05/07 07:44:08;;;;;;;10.40;9.80;;;;;;;17.00;43.55;93260.97;5068487;28;20385;-86
2022/05/07 07:49:18;;;;;;;10.53;9.93;;;;;;;17.74;42.93;93275.19;5060767;28;20204;-87
2022/05/07 07:51:43;;;;;;;9.23;8.73;;;;;;;17.66;41.87;93277.78;5072165;28;20236;-91
2022/05/07 07:54:09;;;;;;;9.43;8.83;;;;;;;17.67;42.49;93266.94;5068625;28;20238;-87
2022/05/07 07:56:34;;;;;;;9.60;9.07;;;;;;;17.44;43.14;93271.50;5073495;28;20225;-90
2022/05/07 07:59:00;;;;;;;9.97;9.37;;;;;;;17.55;42.17;93278.09;5071776;28;20186;-88
2022/05/07 08:01:25;;;;;;;9.83;9.33;;;;;;;17.72;41.90;93285.28;5074678;28;20225;-90
2022/05/07 08:03:50;;;;;;;8.87;8.30;;;;;;;17.74;43.34;93277.06;5072265;28;20262;-88
2022/05/07 08:06:16;;;;;;;10.00;9.40;;;;;;;18.00;42.03;93254.13;5065313;28;20222;-92
2022/05/07 08:11:41;;;;;;;9.70;8.70;;;;;;;17.93;42.49;93277.59;5081622;28;20229;-88
2022/05/07 08:14:13;;;;;;;10.50;9.70;;;;;;;17.50;44.18;93275.56;5066033;28;20205;-91
2022/05/07 08:16:38;;;;;;;9.53;9.00;;;;;;;17.55;43.63;93272.81;5062966;28;20253;-84
2022/05/07 08:19:04;;;;;;;10.03;9.43;;;;;;;17.72;43.79;93281.84;5051043;28;20209;-88
2022/05/07 08:21:29;;;;;;;9.27;8.77;;;;;;;17.80;42.61;93283.75;5066423;28;20230;-86
2022/05/07 08:23:55;;;;;;;9.77;9.17;;;;;;;17.63;42.84;93291.59;5054857;28;20198;-86
2022/05/07 08:26:21;;;;;;;9.07;8.47;;;;;;;17.30;42.59;93294.53;5056826;28;20224;-79
2022/05/07 08:28:47;;;;;;;9.93;9.23;;;;;;;17.47;43.99;93285.94;5073728;28;20212;-83
2022/05/07 08:31:13;;;;;;;9.97;9.37;;;;;;;17.49;43.08;93274.00;5073212;28;20217;-80
2022/05/07 08:33:41;;;;;;;9.37;8.87;;;;;;;17.14;44.28;93282.78;5067904;28;20244;-84
2022/05/07 08:36:07;;;;;;;9.53;8.93;;;;;;;17.35;44.24;93289.09;5074731;28;20267;-80
2022/05/07 08:38:33;;;;;;;9.20;8.60;;;;;;;17.70;43.12;93286.69;5061958;28;20216;-89
2022/05/07 08:41:02;;;;;;;9.80;9.20;;;;;;;17.68;42.89;93275.63;5054579;28;20226;-86
2022/05/07 08:43:38;;;;;;;9.40;9.00;;;;;;;17.63;43.88;93288.97;5046751;28;20252;-87
2022/05/07 08:46:16;;;;;;;10.60;9.93;;;;;;;17.88;42.82;93273.22;5054404;28;20228;-86
2022/05/07 08:48:46;;;;;;;9.13;8.63;;;;;;;18.21;41.56;93284.94;5063601;28;20239;-86
2022/05/07 08:51:13;;;;;;;9.93;9.43;;;;;;;17.73;42.18;93294.75;5060500;28;20217;-86
2022/05/07 08:53:39;;;;;;;10.33;9.73;;;;;;;17.82;42.57;93281.59;5049377;28;20747;-84
2022/05/07 08:56:05;;;;;;;11.43;10.27;;;;;;;17.73;41.77;93281.53;5052246;28;20216;-85
2022/05/07 08:58:30;;;;;;;9.57;8.97;;;;;;;17.81;41.25;93286.09;5068443;28;20224;-82
2022/05/07 09:00:57;;;;;;;9.70;9.13;;;;;;;17.64;41.59;93286.03;5065852;28;20237;-87
2022/05/07 09:03:24;;;;;;;9.80;9.20;;;;;;;18.07;42.28;93278.25;5064489;28;20169;-85
2022/05/07 09:05:49;;;;;;;10.07;9.53;;;;;;;17.86;40.70;93256.91;5066654;28;20197;-86
2022/05/07 09:08:15;;;;;;;9.53;8.93;;;;;;;18.03;41.76;93277.28;5049332;28;20242;-89
2022/05/07 09:10:41;;;;;;;9.80;9.20;;;;;;;18.37;42.54;93270.19;5054387;28;20189;-87
2022/05/07 09:13:08;;;;;;;10.13;9.33;;;;;;;18.63;39.70;93275.53;5069425;28;20220;-81
2022/05/07 09:15:34;;;;;;;8.87;8.37;;;;;;;18.46;40.01;93270.25;5070903;28;20181;-78
2022/05/07 09:18:00;;;;;;;9.93;9.33;;;;;;;18.08;39.75;93233.00;5066521;28;20225;-79
2022/05/07 09:20:26;;;;;;;9.33;8.83;;;;;;;18.10;39.99;93269.69;5074327;28;20246;-81
2022/05/07 09:22:55;;;;;;;12.90;9.10;;;;;;;18.12;40.54;93270.16;5072453;28;20241;-79
2022/05/07 09:25:25;;;;;;;9.80;9.30;;;;;;;18.45;39.89;93266.03;5067363;28;20327;-76
2022/05/07 09:27:54;;;;;;;8.97;8.47;;;;;;;18.70;40.08;93265.25;5065055;28;20221;-75
2022/05/07 09:30:24;;;;;;;9.07;8.33;;;;;;;18.72;38.84;93265.75;5067687;28;20257;-74
2022/05/07 09:32:51;;;;;;;10.20;9.50;;;;;;;18.55;40.39;93260.44;5070212;28;20297;-74
2022/05/07 09:38:03;;;;;;;9.03;8.33;;;;;;;18.75;38.78;93262.47;5048880;28;20280;-80
2022/05/07 09:40:29;;;;;;;8.77;8.00;;;;;;;19.03;39.41;93253.09;5043418;28;20191;-81
2022/05/07 09:42:58;;;;;;;9.47;8.77;;;;;;;19.13;38.54;93255.41;5063748;28;20226;-79
2022/05/07 09:45:27;;;;;;;8.83;8.43;;;;;;;19.58;36.66;93248.59;5068228;28;20187;-78
2022/05/07 09:47:59;;;;;;;9.70;8.83;;;;;;;19.34;36.77;93247.59;5072576;28;20214;-84
2022/05/07 09:50:44;;;;;;;9.47;8.63;;;;;;;19.18;37.08;93245.44;5069205;28;20185;-78
2022/05/07 09:58:45;;;;;;;8.73;8.20;;;;;;;19.08;37.47;93240.47;5049459;28;20243;-86
2022/05/07 10:01:20;;;;;;;8.80;8.40;;;;;;;19.14;37.90;93230.50;5058060;28;20230;-84
2022/05/07 10:04:10;;;;;;;8.67;8.17;;;;;;;19.21;35.62;93230.78;5062847;28;20188;-83
2022/05/07 10:07:00;;;;;;;8.80;8.40;;;;;;;19.17;37.51;93219.28;5070815;28;20227;-86
2022/05/07 10:09:55;;;;;;;8.93;8.43;;;;;;;20.13;35.91;93233.38;5066548;28;20192;-82
2022/05/07 10:12:22;;;;;;;8.90;8.40;;;;;;;20.29;34.19;93229.09;5066584;28;20220;-82
2022/05/07 10:14:48;;;;;;;8.40;8.00;;;;;;;20.45;34.88;93226.63;5060795;28;20215;-84
2022/05/07 10:17:15;;;;;;;9.20;8.53;;;;;;;20.73;34.02;93209.81;5049021;28;20247;-79
2022/05/07 10:19:45;;;;;;;8.07;7.67;;;;;;;20.42;32.41;93221.97;5044196;28;20194;-78
2022/05/07 10:22:25;;;;;;;8.53;8.03;;;;;;;19.79;33.45;93201.75;5052267;28;20285;-78
2022/05/07 10:25:07;;;;;;;8.43;7.93;;;;;;;20.16;33.94;93213.41;5048629;28;20199;-79
2022/05/07 10:27:39;;;;;;;7.77;7.37;;;;;;;19.97;33.86;93218.34;5072827;28;20236;-77
2022/05/07 10:30:15;;;;;;;9.30;8.70;;;;;;;20.29;33.46;93220.34;5069416;28;20199;-78
2022/05/07 10:33:01;;;;;;;7.97;7.63;;;;;;;20.48;32.16;93218.03;5061399;28;20235;-78
2022/05/07 10:35:53;;;;;;;8.38;7.95;;;;;;;20.52;31.80;93211.75;5065235;28;20191;-77
2022/05/07 10:38:37;;;;;;;8.47;7.97;;;;;;;20.55;31.21;93205.78;5066830;28;20203;-77
2022/05/07 10:41:11;;;;;;;8.63;8.20;;;;;;;19.94;31.73;93197.75;5061308;28;20223;-77
2022/05/07 10:43:38;;;;;;;8.43;8.03;;;;;;;19.84;29.01;93209.53;5069555;28;20226;-78
2022/05/07 10:46:16;;;;;;;8.17;7.70;;;;;;;19.81;30.11;93191.63;5089342;28;20254;-78
2022/05/07 10:48:50;;;;;;;8.40;7.90;;;;;;;19.74;32.93;93195.84;5073027;28;20276;-78
2022/05/07 10:51:21;;;;;;;8.77;8.37;;;;;;;19.81;33.16;93204.88;5063363;28;20208;-80
2022/05/07 10:53:47;;;;;;;8.53;7.93;;;;;;;19.80;33.85;93200.66;5067102;28;20995;-79
2022/05/07 10:56:17;;;;;;;8.57;8.10;;;;;;;19.71;33.48;93210.53;5066626;28;20239;-78
2022/05/07 10:58:48;;;;;;;8.53;8.13;;;;;;;19.34;33.06;93198.06;5067505;28;20187;-78
2022/05/07 11:01:14;;;;;;;9.50;9.00;;;;;;;19.32;34.38;93196.81;5067874;28;20226;-76
2022/05/07 11:03:40;;;;;;;9.23;8.37;;;;;;;19.14;35.48;93201.38;5074944;28;20202;-79
2022/05/07 11:06:06;;;;;;;8.90;8.40;;;;;;;19.37;35.21;93194.78;5068726;28;20239;-75
2022/05/07 11:08:32;;;;;;;8.80;8.27;;;;;;;19.39;28.39;93192.59;5071007;28;20207;-82
2022/05/07 11:11:08;;;;;;;9.70;8.90;;;;;;;19.61;28.80;93184.38;5073639;28;20292;-83
2022/05/07 11:13:46;;;;;;;8.43;7.90;;;;;;;19.69;29.40;93186.22;5065231;28;20211;-83
2022/05/07 11:16:12;;;;;;;8.33;7.93;;;;;;;19.78;28.31;93186.94;5063518;28;20235;-82
2022/05/07 11:18:40;;;;;;;8.43;7.93;;;;;;;19.94;27.76;93179.97;5066485;28;20239;-77
2022/05/07 11:21:06;;;;;;;8.17;7.77;;;;;;;19.80;27.20;93168.09;5072550;28;20227;-85
2022/05/07 11:23:45;;;;;;;8.33;7.93;;;;;;;19.73;25.93;93175.75;5065918;28;20187;-78
2022/05/07 11:26:12;;;;;;;8.60;7.90;;;;;;;19.19;25.45;93145.63;5066477;28;20230;-83
2022/05/07 11:28:39;;;;;;;7.97;7.57;;;;;;;19.56;26.38;93167.91;5070421;28;20212;-82
2022/05/07 11:31:05;;;;;;;7.47;7.07;;;;;;;19.90;26.69;93175.66;5072854;28;20239;-80
2022/05/07 11:33:30;;;;;;;7.23;6.93;;;;;;;20.02;26.96;93184.47;5071223;28;20240;-84
2022/05/07 11:36:06;;;;;;;8.63;8.17;;;;;;;19.98;26.21;93162.34;5064760;28;20226;-84
2022/05/07 11:38:36;;;;;;;8.53;8.13;;;;;;;20.10;27.01;93164.28;5071447;28;20192;-84
2022/05/07 11:41:14;;;;;;;8.77;8.17;;;;;;;20.21;28.46;93166.28;5064318;28;20304;-85
2022/05/07 11:46:25;;;;;;;8.20;7.80;;;;;;;20.33;26.33;93168.97;5068855;28;20233;-83
2022/05/07 11:48:51;;;;;;;8.00;7.60;;;;;;;20.32;26.53;93158.69;5073036;28;20192;-84
2022/05/07 11:51:25;;;;;;;8.30;7.80;;;;;;;20.38;27.16;93163.47;5062338;28;20248;-85
2022/05/07 11:53:51;;;;;;;8.03;7.60;;;;;;;20.56;27.71;93151.59;5068910;28;20212;-85
2022/05/07 11:56:17;;;;;;;8.73;8.13;;;;;;;20.50;29.11;93163.53;5069170;28;20231;-83
2022/05/07 11:58:49;;;;;;;8.30;7.80;;;;;;;20.67;28.19;93154.63;5071650;28;20195;-83
2022/05/07 12:01:23;;;;;;;7.80;7.40;;;;;;;20.33;27.78;93153.06;5067570;28;20229;-84
2022/05/07 12:03:49;;;;;;;8.50;8.00;;;;;;;20.61;27.30;93159.38;5074188;28;20210;-83
2022/05/07 12:06:30;;;;;;;8.97;8.47;;;;;;;20.20;28.89;93148.78;5067418;28;20295;-84